createdAt,value
2022-11-05T00:00:23.985Z,70.35
2022-11-05T00:02:50.950Z,70.23
2022-11-05T00:05:17.962Z,70.83
2022-11-05T00:07:51.046Z,71.10
2022-11-05T00:10:29.560Z,71.30
2022-11-05T00:12:59.664Z,71.39
2022-11-05T00:15:26.601Z,71.41
2022-11-05T00:17:53.519Z,71.60
2022-11-05T00:20:20.623Z,71.78
2022-11-05T00:22:47.683Z,71.92
2022-11-05T00:25:15.016Z,72.05
2022-11-05T00:27:42.546Z,71.82
2022-11-05T00:30:10.108Z,71.76
2022-11-05T00:32:37.095Z,71.88
2022-11-05T00:35:05.758Z,71.75
2022-11-05T00:37:32.745Z,71.74
2022-11-05T00:39:59.654Z,71.28
2022-11-05T00:42:26.886Z,71.87
2022-11-05T00:44:53.782Z,71.49
2022-11-05T00:47:21.049Z,71.33
2022-11-05T00:49:48.024Z,71.48
2022-11-05T00:52:14.919Z,71.62
2022-11-05T00:54:41.883Z,72.02
2022-11-05T00:57:08.894Z,71.97
2022-11-05T00:59:35.885Z,71.63
2022-11-05T01:02:03.056Z,71.81
2022-11-05T01:04:30.143Z,71.75
2022-11-05T01:06:57.110Z,72.02
2022-11-05T01:09:24.024Z,72.29
2022-11-05T01:11:50.907Z,72.32
2022-11-05T01:14:17.906Z,72.25
2022-11-05T01:16:45.045Z,72.76
2022-11-05T01:19:12.285Z,72.90
2022-11-05T01:21:39.209Z,72.92
2022-11-05T01:24:06.601Z,72.95
2022-11-05T01:26:33.482Z,72.63
2022-11-05T01:29:00.632Z,72.74
2022-11-05T01:31:28.423Z,72.87
2022-11-05T01:33:55.606Z,72.89
2022-11-05T01:36:22.670Z,72.84
2022-11-05T01:38:49.828Z,72.72
2022-11-05T01:41:16.822Z,72.87
2022-11-05T01:43:50.181Z,72.49
2022-11-05T01:46:55.048Z,72.60
2022-11-05T01:49:32.509Z,72.60
2022-11-05T01:52:03.664Z,72.62
2022-11-05T01:54:33.414Z,72.65
2022-11-05T01:57:04.268Z,72.70
2022-11-05T01:59:40.226Z,72.56
2022-11-05T02:02:08.509Z,72.84
2022-11-05T02:04:40.247Z,72.82
2022-11-05T02:07:09.889Z,72.76
2022-11-05T02:10:08.781Z,73.50
2022-11-05T02:12:39.506Z,72.81
2022-11-05T02:15:07.271Z,72.53
2022-11-05T02:17:51.931Z,72.41
2022-11-05T02:20:32.050Z,73.11
2022-11-05T02:23:26.480Z,73.57
2022-11-05T02:26:14.668Z,73.86
2022-11-05T02:29:12.039Z,74.48
2022-11-05T02:32:03.527Z,74.11
2022-11-05T02:34:33.297Z,74.34
2022-11-05T02:37:16.561Z,74.68
2022-11-05T02:40:04.563Z,74.45
2022-11-05T02:42:38.733Z,75.08
2022-11-05T02:45:23.567Z,75.02
2022-11-05T02:48:18.733Z,75.08
2022-11-05T02:51:04.906Z,75.03
2022-11-05T02:53:39.304Z,75.23
2022-11-05T02:56:13.594Z,75.11
2022-11-05T02:58:40.507Z,75.14
2022-11-05T03:01:09.743Z,74.82
2022-11-05T03:03:46.167Z,74.90
2022-11-05T03:06:27.958Z,74.75
2022-11-05T03:09:13.864Z,75.78
2022-11-05T03:11:59.480Z,75.90
2022-11-05T03:14:49.147Z,75.27
2022-11-05T03:17:27.627Z,75.23
2022-11-05T03:20:15.936Z,74.87
2022-11-05T03:23:07.966Z,74.79
2022-11-05T03:25:43.659Z,74.59
2022-11-05T03:28:13.283Z,74.41
2022-11-05T03:30:42.521Z,74.20
2022-11-05T03:33:17.386Z,73.86
2022-11-05T03:35:50.889Z,74.12
2022-11-05T03:38:24.544Z,73.65
2022-11-05T03:40:55.245Z,73.02
2022-11-05T03:43:27.666Z,73.08
2022-11-05T03:46:00.892Z,74.60
2022-11-05T03:48:30.858Z,74.84
2022-11-05T03:51:00.747Z,74.73
2022-11-05T03:53:32.404Z,73.96
2022-11-05T03:56:31.787Z,73.99
2022-11-05T03:59:01.463Z,73.65
2022-11-05T04:01:30.455Z,73.30
2022-11-05T04:03:57.608Z,73.29
2022-11-05T04:06:24.502Z,73.29
2022-11-05T04:08:51.784Z,73.39
2022-11-05T04:11:18.811Z,73.75
2022-11-05T04:13:45.845Z,73.98
2022-11-05T04:16:12.789Z,74.30
2022-11-05T04:18:40.181Z,74.37
2022-11-05T04:21:08.388Z,73.57
2022-11-05T04:23:35.458Z,73.62
2022-11-05T04:26:02.487Z,73.92
2022-11-05T04:28:29.372Z,73.51
2022-11-05T04:30:56.445Z,73.59
2022-11-05T04:33:23.362Z,73.48
2022-11-05T04:35:50.305Z,73.89
2022-11-05T04:38:19.509Z,74.25
2022-11-05T04:40:47.765Z,74.84
2022-11-05T04:43:17.409Z,74.60
2022-11-05T04:45:45.549Z,73.97
2022-11-05T04:48:12.743Z,74.76
2022-11-05T04:50:39.656Z,74.38
2022-11-05T04:53:06.743Z,75.29
2022-11-05T04:55:33.745Z,76.15
2022-11-05T04:58:00.862Z,76.68
2022-11-05T05:00:28.137Z,76.86
2022-11-05T05:02:55.344Z,76.71
2022-11-05T05:05:22.223Z,77.55
2022-11-05T05:07:49.511Z,78.65
2022-11-05T05:10:16.663Z,78.71
2022-11-05T05:12:43.729Z,78.85
2022-11-05T05:15:10.905Z,78.75
2022-11-05T05:17:37.988Z,78.90
2022-11-05T05:20:05.266Z,79.28
2022-11-05T05:22:32.347Z,78.68
2022-11-05T05:24:59.302Z,77.72
2022-11-05T05:27:28.121Z,76.86
2022-11-05T05:29:58.388Z,76.99
2022-11-05T05:32:26.383Z,77.13
2022-11-05T05:34:53.708Z,76.93
2022-11-05T05:37:20.866Z,76.46
2022-11-05T05:39:47.876Z,75.41
2022-11-05T05:42:15.246Z,74.74
2022-11-05T05:44:42.481Z,74.38
2022-11-05T05:47:09.589Z,74.30
2022-11-05T05:49:36.604Z,74.01
2022-11-05T05:52:03.743Z,74.14
2022-11-05T05:54:33.538Z,73.59
2022-11-05T05:57:02.065Z,73.14
2022-11-05T05:59:29.143Z,72.49
2022-11-05T06:01:56.234Z,72.48
2022-11-05T06:04:23.712Z,72.31
2022-11-05T06:06:50.921Z,72.74
2022-11-05T06:09:17.972Z,72.85
2022-11-05T06:11:44.966Z,72.47
2022-11-05T06:14:13.401Z,71.50
2022-11-05T06:16:40.823Z,72.03
2022-11-05T06:19:08.205Z,71.69
2022-11-05T06:21:35.626Z,71.29
2022-11-05T06:24:03.013Z,71.26
2022-11-05T06:26:30.391Z,72.38
2022-11-05T06:28:57.481Z,72.56
2022-11-05T06:31:24.469Z,72.41
2022-11-05T06:33:51.609Z,71.64
2022-11-05T06:36:20.044Z,71.21
2022-11-05T06:38:47.382Z,71.69
2022-11-05T06:41:14.486Z,71.00
2022-11-05T06:43:41.920Z,70.57
2022-11-05T06:46:10.857Z,70.80
2022-11-05T06:48:38.623Z,70.27
2022-11-05T06:51:07.446Z,70.45
2022-11-05T06:53:34.880Z,69.95
2022-11-05T06:56:05.856Z,69.79
2022-11-05T06:58:33.558Z,69.11
2022-11-05T07:01:10.776Z,68.65
2022-11-05T07:03:38.738Z,68.07
2022-11-05T07:06:07.702Z,67.69
2022-11-05T07:08:35.968Z,67.61
2022-11-05T07:11:02.917Z,67.17
2022-11-05T07:13:29.959Z,67.06
2022-11-05T07:15:57.104Z,67.20
2022-11-05T07:18:24.143Z,67.78
2022-11-05T07:20:51.044Z,67.63
2022-11-05T07:23:18.174Z,66.81
2022-11-05T07:25:45.322Z,65.16
2022-11-05T07:28:12.440Z,64.91
2022-11-05T07:30:39.324Z,64.47
2022-11-05T07:33:06.266Z,64.29
2022-11-05T07:35:33.627Z,63.87
2022-11-05T07:38:00.703Z,64.08
2022-11-05T07:40:29.647Z,64.13
2022-11-05T07:43:01.521Z,65.11
2022-11-05T07:45:30.768Z,65.30
2022-11-05T07:48:02.695Z,65.36
2022-11-05T07:50:34.975Z,63.81
2022-11-05T07:53:12.155Z,62.85
2022-11-05T07:55:41.322Z,61.69
2022-11-05T07:58:08.184Z,61.07
2022-11-05T08:00:35.167Z,60.96
2022-11-05T08:03:12.974Z,59.06
2022-11-05T08:05:42.092Z,57.39
2022-11-05T08:08:10.431Z,55.50
2022-11-05T08:10:38.238Z,55.38
2022-11-05T08:13:06.350Z,52.99
2022-11-05T08:15:34.610Z,51.67
2022-11-05T08:18:03.642Z,51.08
2022-11-05T08:20:31.330Z,52.31
2022-11-05T08:22:58.565Z,53.47
2022-11-05T08:25:26.346Z,51.52
2022-11-05T08:28:02.172Z,51.76
2022-11-05T08:30:29.926Z,51.17
2022-11-05T08:33:02.050Z,50.05
2022-11-05T08:35:29.547Z,51.12
2022-11-05T08:38:01.130Z,50.91
2022-11-05T08:40:29.102Z,50.67
2022-11-05T08:43:00.119Z,50.41
2022-11-05T08:45:27.589Z,50.84
2022-11-05T08:48:02.174Z,50.75
2022-11-05T08:50:29.841Z,50.46
2022-11-05T08:52:56.906Z,50.71
2022-11-05T08:55:24.568Z,51.58
2022-11-05T08:57:58.886Z,51.93
2022-11-05T09:00:27.066Z,52.04
2022-11-05T09:02:54.149Z,51.52
2022-11-05T09:05:21.145Z,51.43
2022-11-05T09:07:48.566Z,50.35
2022-11-05T09:10:15.975Z,51.53
2022-11-05T09:12:43.481Z,51.70
2022-11-05T09:15:11.017Z,52.81
2022-11-05T09:17:37.964Z,52.98
2022-11-05T09:20:06.106Z,52.95
2022-11-05T09:22:33.222Z,52.87
2022-11-05T09:25:00.225Z,53.32
2022-11-05T09:27:27.121Z,53.17
2022-11-05T09:29:54.284Z,53.95
2022-11-05T09:32:21.260Z,54.26
2022-11-05T09:34:48.520Z,53.57
2022-11-05T09:37:16.024Z,53.91
2022-11-05T09:39:42.979Z,54.19
2022-11-05T09:42:13.985Z,53.48
2022-11-05T09:44:49.704Z,53.81
2022-11-05T09:47:33.249Z,54.04
2022-11-05T09:50:03.877Z,53.49
2022-11-05T09:52:33.578Z,53.59
2022-11-05T09:55:03.020Z,53.27
2022-11-05T09:57:41.974Z,52.58
2022-11-05T10:00:13.980Z,52.91
2022-11-05T10:02:54.942Z,52.66
2022-11-05T10:05:24.678Z,52.64
2022-11-05T10:07:56.867Z,52.50
2022-11-05T10:10:27.188Z,53.02
2022-11-05T10:13:01.342Z,52.98
2022-11-05T10:15:36.779Z,52.00
2022-11-05T10:18:19.399Z,51.16
2022-11-05T10:20:46.986Z,51.73
2022-11-05T10:23:19.521Z,51.40
2022-11-05T10:25:53.141Z,52.12
2022-11-05T10:28:23.534Z,51.25
2022-11-05T10:30:58.466Z,50.26
2022-11-05T10:33:34.980Z,50.28
2022-11-05T10:36:07.984Z,50.89
2022-11-05T10:38:34.988Z,51.14
2022-11-05T10:41:40.928Z,50.21
2022-11-05T10:44:40.416Z,49.61
2022-11-05T10:47:29.134Z,49.47
2022-11-05T10:50:01.188Z,49.58
2022-11-05T10:52:31.002Z,49.28
2022-11-05T10:55:01.326Z,49.50
2022-11-05T10:57:33.370Z,49.68
2022-11-05T11:00:15.747Z,48.43
2022-11-05T11:02:44.249Z,48.37
2022-11-05T11:05:18.927Z,48.60
2022-11-05T11:07:54.379Z,47.26
2022-11-05T11:10:23.732Z,47.29
2022-11-05T11:12:52.176Z,46.70
2022-11-05T11:15:33.318Z,46.94
2022-11-05T11:18:25.067Z,47.08
2022-11-05T11:20:52.290Z,47.66
2022-11-05T11:23:19.545Z,46.91
2022-11-05T11:26:01.201Z,46.50
2022-11-05T11:28:34.172Z,45.51
2022-11-05T11:31:08.863Z,45.38
2022-11-05T11:33:38.205Z,45.45
2022-11-05T11:36:07.169Z,45.70
2022-11-05T11:38:36.602Z,44.79
2022-11-05T11:41:33.569Z,44.67
2022-11-05T11:44:07.615Z,44.95
2022-11-05T11:46:36.022Z,44.50
2022-11-05T11:49:04.406Z,45.20
2022-11-05T11:51:39.083Z,44.83
2022-11-05T11:54:07.387Z,45.18
2022-11-05T11:56:46.558Z,45.21
2022-11-05T11:59:46.874Z,44.58
2022-11-05T12:02:38.336Z,45.80
2022-11-05T12:05:17.563Z,44.64
2022-11-05T12:07:52.751Z,44.65
2022-11-05T12:10:27.747Z,45.19
2022-11-05T12:13:16.528Z,45.30
2022-11-05T12:15:57.582Z,45.83
2022-11-05T12:18:43.617Z,45.25
2022-11-05T12:21:51.481Z,45.42
2022-11-05T12:24:58.541Z,45.41
2022-11-05T12:27:44.606Z,46.83
2022-11-05T12:30:20.568Z,46.34
2022-11-05T12:33:10.061Z,46.07
2022-11-05T12:35:49.030Z,46.81
2022-11-05T12:38:56.604Z,45.93
2022-11-05T12:41:46.309Z,46.67
2022-11-05T12:44:38.482Z,46.47
2022-11-05T12:47:43.369Z,46.22
2022-11-05T12:50:53.527Z,47.41
2022-11-05T12:53:32.537Z,46.93
2022-11-05T12:56:04.015Z,47.17
2022-11-05T12:58:42.381Z,47.74
2022-11-05T13:01:17.656Z,47.01
2022-11-05T13:04:00.705Z,46.75
2022-11-05T13:06:43.844Z,46.53
2022-11-05T13:09:21.564Z,47.21
2022-11-05T13:12:04.900Z,47.28
2022-11-05T13:14:57.987Z,48.16
2022-11-05T13:17:51.099Z,48.56
2022-11-05T13:20:33.776Z,48.78
2022-11-05T13:23:15.129Z,49.75
2022-11-05T13:26:10.006Z,50.18
2022-11-05T13:29:07.534Z,50.46
2022-11-05T13:31:42.422Z,51.05
2022-11-05T13:34:14.083Z,51.00
2022-11-05T13:37:02.726Z,51.64
2022-11-05T13:39:36.526Z,52.48
2022-11-05T13:42:36.648Z,51.78
2022-11-05T13:45:22.170Z,53.01
2022-11-05T13:47:58.866Z,53.67
2022-11-05T13:50:52.617Z,53.34
2022-11-05T13:53:56.221Z,52.68
2022-11-05T13:56:59.702Z,53.80
2022-11-05T13:59:42.257Z,54.43
2022-11-05T14:02:23.716Z,55.29
2022-11-05T14:05:01.352Z,55.55
2022-11-05T14:07:33.823Z,56.02
2022-11-05T14:10:22.225Z,56.60
2022-11-05T14:12:53.863Z,56.34
2022-11-05T14:15:25.568Z,56.52
2022-11-05T14:18:04.009Z,55.58
2022-11-05T14:20:31.812Z,55.69
2022-11-05T14:23:22.103Z,56.50
2022-11-05T14:25:58.497Z,57.02
2022-11-05T14:28:34.937Z,56.90
2022-11-05T14:31:21.414Z,55.43
2022-11-05T14:34:10.889Z,55.52
2022-11-05T14:36:40.750Z,55.66
2022-11-05T14:39:33.529Z,55.11
2022-11-05T14:42:32.647Z,56.08
2022-11-05T14:45:03.098Z,55.60
2022-11-05T14:47:38.096Z,55.55
2022-11-05T14:50:18.572Z,54.28
2022-11-05T14:52:54.742Z,54.58
2022-11-05T14:55:43.078Z,54.98
2022-11-05T14:58:28.365Z,55.85
2022-11-05T15:00:57.262Z,55.75
2022-11-05T15:03:38.575Z,55.84
2022-11-05T15:06:25.968Z,55.90
2022-11-05T15:09:04.862Z,56.35
2022-11-05T15:11:45.217Z,56.18
2022-11-05T15:15:01.863Z,56.61
2022-11-05T15:17:39.721Z,57.05
2022-11-05T15:20:15.201Z,56.98
2022-11-05T15:22:57.501Z,57.63
2022-11-05T15:25:47.850Z,58.07
2022-11-05T15:28:39.897Z,57.65
2022-11-05T15:31:38.683Z,57.53
2022-11-05T15:34:27.297Z,57.87
2022-11-05T15:36:58.816Z,57.35
2022-11-05T15:39:39.697Z,57.38
2022-11-05T15:42:14.424Z,57.98
2022-11-05T15:44:47.285Z,58.10
2022-11-05T15:47:36.679Z,58.09
2022-11-05T15:50:16.345Z,57.51
2022-11-05T15:52:52.585Z,57.42
2022-11-05T15:55:25.424Z,57.73
2022-11-05T15:57:55.890Z,57.90
2022-11-05T16:00:29.373Z,57.69
2022-11-05T16:03:19.655Z,57.46
2022-11-05T16:05:48.758Z,57.80
2022-11-05T16:08:23.746Z,58.05
2022-11-05T16:11:00.025Z,58.63
2022-11-05T16:13:41.447Z,59.21
2022-11-05T16:16:14.896Z,59.56
2022-11-05T16:18:45.011Z,59.77
2022-11-05T16:21:18.290Z,59.79
2022-11-05T16:23:54.263Z,59.31
2022-11-05T16:29:35.937Z,59.49
2022-11-05T16:32:19.217Z,59.41
2022-11-05T16:34:51.125Z,60.16
2022-11-05T16:37:21.605Z,59.67
2022-11-05T16:39:49.817Z,59.51
2022-11-05T16:42:23.346Z,59.54
2022-11-05T16:44:52.040Z,59.42
2022-11-05T16:47:20.368Z,59.34
2022-11-05T16:49:52.328Z,59.68
2022-11-05T16:52:19.931Z,59.84
2022-11-05T16:54:47.246Z,59.69
2022-11-05T16:57:34.935Z,59.70
2022-11-05T17:00:02.550Z,59.51
2022-11-05T17:02:30.572Z,59.26
2022-11-05T17:04:58.258Z,59.33
2022-11-05T17:07:25.859Z,59.61
2022-11-05T17:09:53.489Z,59.32
2022-11-05T17:12:21.098Z,59.78
2022-11-05T17:14:48.458Z,60.15
2022-11-05T17:17:17.089Z,60.92
2022-11-05T17:19:44.944Z,61.10
2022-11-05T17:22:12.492Z,61.46
2022-11-05T17:24:40.938Z,61.74
2022-11-05T17:27:08.982Z,61.98
2022-11-05T17:29:36.780Z,62.01
2022-11-05T17:32:06.627Z,62.46
2022-11-05T17:34:34.576Z,62.54
2022-11-05T17:37:02.176Z,62.38
2022-11-05T17:39:31.827Z,62.03
2022-11-05T17:42:00.168Z,61.85
2022-11-05T17:44:27.778Z,61.97
2022-11-05T17:46:55.384Z,61.65
2022-11-05T17:49:23.388Z,61.85
2022-11-05T17:51:50.815Z,62.27
2022-11-05T17:54:18.790Z,62.46
2022-11-05T17:56:46.889Z,61.95
2022-11-05T17:59:15.164Z,61.60
2022-11-05T18:01:42.704Z,61.93
2022-11-05T18:04:11.617Z,61.73
2022-11-05T18:06:40.806Z,62.22
2022-11-05T18:09:10.526Z,62.14
2022-11-05T18:11:39.140Z,62.35
2022-11-05T18:14:07.366Z,62.59
2022-11-05T18:16:35.775Z,62.50
2022-11-05T18:19:04.372Z,62.99
2022-11-05T18:21:32.258Z,63.16
2022-11-05T18:24:03.493Z,63.48
2022-11-05T18:26:31.880Z,63.60
2022-11-05T18:29:04.943Z,63.96
2022-11-05T18:31:33.232Z,63.99
2022-11-05T18:34:01.179Z,64.15
2022-11-05T18:36:31.027Z,63.37
2022-11-05T18:39:00.259Z,63.11
2022-11-05T18:41:27.946Z,62.33
2022-11-05T18:44:03.210Z,61.72
2022-11-05T18:49:20.107Z,61.57
2022-11-05T18:51:48.291Z,61.25
2022-11-05T18:54:15.868Z,61.47
2022-11-05T18:56:43.664Z,61.39
2022-11-05T18:59:35.979Z,61.28
2022-11-05T19:02:04.289Z,61.18
2022-11-05T19:04:32.304Z,60.76
2022-11-05T19:07:04.507Z,60.82
2022-11-05T19:09:36.492Z,60.97
2022-11-05T19:12:05.345Z,61.32
2022-11-05T19:14:33.449Z,61.38
2022-11-05T19:17:01.824Z,61.33
2022-11-05T19:19:29.524Z,61.50
2022-11-05T19:21:57.084Z,61.52
2022-11-05T19:24:24.854Z,61.77
2022-11-05T19:26:52.607Z,61.84
2022-11-05T19:29:20.128Z,61.86
2022-11-05T19:31:48.063Z,62.16
2022-11-05T19:34:15.665Z,62.54
2022-11-05T19:36:44.027Z,63.12
2022-11-05T19:39:14.082Z,63.42
2022-11-05T19:41:42.063Z,63.09
2022-11-05T19:44:09.818Z,62.90
2022-11-05T19:46:37.363Z,62.92
2022-11-05T19:49:05.052Z,62.81
2022-11-05T19:51:33.371Z,62.80
2022-11-05T19:54:02.858Z,62.70
2022-11-05T19:56:33.371Z,62.92
2022-11-05T19:59:01.543Z,62.75
2022-11-05T20:01:29.969Z,62.80
2022-11-05T20:03:59.089Z,62.51
2022-11-05T20:06:37.164Z,62.71
2022-11-05T20:09:21.185Z,63.08
2022-11-05T20:11:51.301Z,63.61
2022-11-05T20:14:19.021Z,63.86
2022-11-05T20:16:47.537Z,64.02
2022-11-05T20:19:20.220Z,64.30
2022-11-05T20:21:48.246Z,64.44
2022-11-05T20:24:23.741Z,64.88
2022-11-05T20:26:51.613Z,65.00
2022-11-05T20:29:19.732Z,64.78
2022-11-05T20:31:47.335Z,64.80
2022-11-05T20:34:14.853Z,64.99
2022-11-05T20:36:43.087Z,65.02
2022-11-05T20:39:11.066Z,65.88
2022-11-05T20:41:38.559Z,66.17
2022-11-05T20:44:06.682Z,66.47
2022-11-05T20:46:34.499Z,66.47
2022-11-05T20:49:02.244Z,66.47
2022-11-05T20:51:29.701Z,66.37
2022-11-05T20:53:59.899Z,66.16
2022-11-05T20:56:33.900Z,66.13
2022-11-05T20:59:02.248Z,66.07
2022-11-05T21:01:32.092Z,65.30
2022-11-05T21:03:59.891Z,65.56
2022-11-05T21:06:27.848Z,65.94
2022-11-05T21:08:55.308Z,66.41
2022-11-05T21:11:23.222Z,66.65
2022-11-05T21:13:50.923Z,67.13
2022-11-05T21:16:19.499Z,67.13
2022-11-05T21:18:47.663Z,67.08
2022-11-05T21:21:18.104Z,67.49
2022-11-05T21:23:46.245Z,67.92
2022-11-05T21:26:15.512Z,67.81
2022-11-05T21:28:43.576Z,67.18
2022-11-05T21:31:11.381Z,66.53
2022-11-05T21:33:39.044Z,66.78
2022-11-05T21:36:12.299Z,66.88
2022-11-05T21:38:41.075Z,65.45
2022-11-05T21:41:10.611Z,65.46
2022-11-05T21:43:39.501Z,66.06
2022-11-05T21:46:07.429Z,66.32
2022-11-05T21:48:35.539Z,66.56
2022-11-05T21:51:03.049Z,67.08
2022-11-05T21:53:30.662Z,67.32
2022-11-05T21:55:58.918Z,68.55
2022-11-05T21:58:26.488Z,69.23
2022-11-05T22:00:54.167Z,68.71
2022-11-05T22:03:21.964Z,64.97
2022-11-05T22:05:50.146Z,65.21
2022-11-05T22:08:18.142Z,66.60
2022-11-05T22:10:45.779Z,67.22
2022-11-05T22:13:14.130Z,67.69
2022-11-05T22:15:41.774Z,67.60
2022-11-05T22:18:10.297Z,67.94
2022-11-05T22:20:39.464Z,67.98
2022-11-05T22:23:11.197Z,67.72
2022-11-05T22:25:40.862Z,67.79
2022-11-05T22:28:08.858Z,67.92
2022-11-05T22:30:36.622Z,67.92
2022-11-05T22:33:04.374Z,68.04
2022-11-05T22:35:32.481Z,67.79
2022-11-05T22:38:00.324Z,68.67
2022-11-05T22:40:28.131Z,68.80
2022-11-05T22:42:55.727Z,69.24
2022-11-05T22:45:23.427Z,69.34
2022-11-05T22:47:51.011Z,69.34
2022-11-05T22:50:18.736Z,69.72
2022-11-05T22:52:46.621Z,69.49
2022-11-05T22:55:14.218Z,69.39
2022-11-05T22:57:41.579Z,69.05
2022-11-05T23:00:16.816Z,69.82
2022-11-05T23:02:45.134Z,70.86
2022-11-05T23:05:12.902Z,70.50
2022-11-05T23:07:40.977Z,70.72
2022-11-05T23:10:10.079Z,70.59
2022-11-05T23:12:38.486Z,70.21
2022-11-05T23:15:08.250Z,70.20
2022-11-05T23:17:35.534Z,70.21
2022-11-05T23:20:03.860Z,69.77
2022-11-05T23:22:33.069Z,69.58
2022-11-05T23:25:00.968Z,69.29
2022-11-05T23:27:37.746Z,69.06
2022-11-05T23:30:14.375Z,69.02
2022-11-05T23:32:41.963Z,68.58
2022-11-05T23:35:10.371Z,69.23
2022-11-05T23:37:38.136Z,70.13
2022-11-05T23:40:09.043Z,71.66
2022-11-05T23:42:36.925Z,72.11
2022-11-05T23:45:10.332Z,72.30
2022-11-05T23:47:41.098Z,72.38
2022-11-05T23:50:09.501Z,71.89
2022-11-05T23:52:37.184Z,72.18
2022-11-05T23:55:05.540Z,72.29
2022-11-05T23:57:32.681Z,71.75
